sensor_id;sensor_type;location;lat;lon;timestamp;P1;durP1;ratioP1;P2;durP2;ratioP2
7917;SDS011;4004;42.624;23.386;2022-09-17T00:01:26;9.10;;;3.50;;
7917;SDS011;4004;42.624;23.386;2022-09-17T00:03:57;9.47;;;4.00;;
7917;SDS011;4004;42.624;23.386;2022-09-17T00:06:29;5.53;;;4.07;;
7917;SDS011;4004;42.624;23.386;2022-09-17T00:08:56;7.07;;;3.73;;
7917;SDS011;4004;42.624;23.386;2022-09-17T00:11:24;9.40;;;3.20;;
7917;SDS011;4004;42.624;23.386;2022-09-17T00:13:53;6.97;;;3.77;;
7917;SDS011;4004;42.624;23.386;2022-09-17T00:16:22;8.03;;;4.00;;
7917;SDS011;4004;42.624;23.386;2022-09-17T00:18:51;7.17;;;3.60;;
7917;SDS011;4004;42.624;23.386;2022-09-17T00:21:19;9.87;;;4.33;;
7917;SDS011;4004;42.624;23.386;2022-09-17T00:23:47;15.00;;;4.50;;
7917;SDS011;4004;42.624;23.386;2022-09-17T00:26:14;9.13;;;4.90;;
7917;SDS011;4004;42.624;23.386;2022-09-17T00:28:40;6.77;;;4.43;;
7917;SDS011;4004;42.624;23.386;2022-09-17T00:31:12;7.33;;;3.47;;
7917;SDS011;4004;42.624;23.386;2022-09-17T00:33:39;11.13;;;3.23;;
7917;SDS011;4004;42.624;23.386;2022-09-17T00:36:06;8.37;;;3.93;;
7917;SDS011;4004;42.624;23.386;2022-09-17T00:38:34;8.33;;;2.93;;
7917;SDS011;4004;42.624;23.386;2022-09-17T00:41:02;6.23;;;3.07;;
7917;SDS011;4004;42.624;23.386;2022-09-17T00:43:34;5.37;;;3.63;;
7917;SDS011;4004;42.624;23.386;2022-09-17T00:46:03;8.17;;;3.10;;
7917;SDS011;4004;42.624;23.386;2022-09-17T00:48:36;6.60;;;2.87;;
7917;SDS011;4004;42.624;23.386;2022-09-17T00:51:03;5.50;;;3.10;;
7917;SDS011;4004;42.624;23.386;2022-09-17T00:53:35;9.43;;;3.37;;
7917;SDS011;4004;42.624;23.386;2022-09-17T00:56:03;5.77;;;3.23;;
7917;SDS011;4004;42.624;23.386;2022-09-17T00:58:35;8.77;;;3.77;;
7917;SDS011;4004;42.624;23.386;2022-09-17T01:01:04;11.60;;;3.70;;
7917;SDS011;4004;42.624;23.386;2022-09-17T01:03:31;9.23;;;4.20;;
7917;SDS011;4004;42.624;23.386;2022-09-17T01:06:00;10.17;;;4.00;;
7917;SDS011;4004;42.624;23.386;2022-09-17T01:08:37;8.97;;;4.77;;
7917;SDS011;4004;42.624;23.386;2022-09-17T01:11:19;12.27;;;5.03;;
7917;SDS011;4004;42.624;23.386;2022-09-17T01:14:07;7.13;;;4.17;;
7917;SDS011;4004;42.624;23.386;2022-09-17T01:16:47;14.10;;;5.20;;
7917;SDS011;4004;42.624;23.386;2022-09-17T01:19:46;9.50;;;4.00;;
7917;SDS011;4004;42.624;23.386;2022-09-17T01:22:31;11.67;;;5.00;;
7917;SDS011;4004;42.624;23.386;2022-09-17T01:25:09;13.50;;;4.97;;
7917;SDS011;4004;42.624;23.386;2022-09-17T01:28:00;8.90;;;4.87;;
7917;SDS011;4004;42.624;23.386;2022-09-17T01:33:52;10.17;;;4.47;;
7917;SDS011;4004;42.624;23.386;2022-09-17T01:36:36;11.93;;;4.17;;
7917;SDS011;4004;42.624;23.386;2022-09-17T01:39:14;8.50;;;3.80;;
7917;SDS011;4004;42.624;23.386;2022-09-17T01:41:50;7.90;;;3.53;;
7917;SDS011;4004;42.624;23.386;2022-09-17T01:44:21;6.07;;;3.43;;
7917;SDS011;4004;42.624;23.386;2022-09-17T01:46:55;13.50;;;4.13;;
7917;SDS011;4004;42.624;23.386;2022-09-17T01:49:28;9.63;;;4.57;;
7917;SDS011;4004;42.624;23.386;2022-09-17T01:51:58;8.30;;;4.90;;
7917;SDS011;4004;42.624;23.386;2022-09-17T01:54:27;10.73;;;5.23;;
7917;SDS011;4004;42.624;23.386;2022-09-17T01:57:00;5.53;;;4.20;;
7917;SDS011;4004;42.624;23.386;2022-09-17T01:59:32;5.27;;;3.73;;
7917;SDS011;4004;42.624;23.386;2022-09-17T02:02:05;12.73;;;4.30;;
7917;SDS011;4004;42.624;23.386;2022-09-17T02:04:39;6.90;;;4.13;;
7917;SDS011;4004;42.624;23.386;2022-09-17T02:07:10;8.13;;;4.03;;
7917;SDS011;4004;42.624;23.386;2022-09-17T02:09:45;9.50;;;4.93;;
7917;SDS011;4004;42.624;23.386;2022-09-17T02:12:18;9.83;;;5.27;;
7917;SDS011;4004;42.624;23.386;2022-09-17T02:14:50;6.27;;;5.30;;
7917;SDS011;4004;42.624;23.386;2022-09-17T02:17:21;10.53;;;6.27;;
7917;SDS011;4004;42.624;23.386;2022-09-17T02:19:51;8.83;;;6.33;;
7917;SDS011;4004;42.624;23.386;2022-09-17T02:22:21;11.60;;;6.60;;
7917;SDS011;4004;42.624;23.386;2022-09-17T02:24:53;12.10;;;6.93;;
7917;SDS011;4004;42.624;23.386;2022-09-17T02:27:28;11.50;;;7.60;;
7917;SDS011;4004;42.624;23.386;2022-09-17T02:30:03;12.93;;;7.33;;
7917;SDS011;4004;42.624;23.386;2022-09-17T02:32:31;9.23;;;6.77;;
7917;SDS011;4004;42.624;23.386;2022-09-17T02:34:58;9.03;;;6.33;;
7917;SDS011;4004;42.624;23.386;2022-09-17T02:37:25;11.87;;;6.63;;
7917;SDS011;4004;42.624;23.386;2022-09-17T02:39:52;12.27;;;6.70;;
7917;SDS011;4004;42.624;23.386;2022-09-17T02:42:20;11.77;;;6.63;;
7917;SDS011;4004;42.624;23.386;2022-09-17T02:44:56;14.33;;;6.50;;
7917;SDS011;4004;42.624;23.386;2022-09-17T02:47:40;11.93;;;6.53;;
7917;SDS011;4004;42.624;23.386;2022-09-17T02:50:33;11.23;;;6.07;;
7917;SDS011;4004;42.624;23.386;2022-09-17T02:53:17;13.23;;;6.50;;
7917;SDS011;4004;42.624;23.386;2022-09-17T02:55:57;13.53;;;6.73;;
7917;SDS011;4004;42.624;23.386;2022-09-17T02:58:30;8.30;;;5.70;;
7917;SDS011;4004;42.624;23.386;2022-09-17T03:01:04;8.17;;;5.93;;
7917;SDS011;4004;42.624;23.386;2022-09-17T03:03:36;8.60;;;5.03;;
7917;SDS011;4004;42.624;23.386;2022-09-17T03:06:06;10.30;;;5.20;;
7917;SDS011;4004;42.624;23.386;2022-09-17T03:08:34;10.30;;;5.03;;
7917;SDS011;4004;42.624;23.386;2022-09-17T03:11:04;9.10;;;4.73;;
7917;SDS011;4004;42.624;23.386;2022-09-17T03:13:32;8.80;;;4.90;;
7917;SDS011;4004;42.624;23.386;2022-09-17T03:15:59;9.87;;;4.40;;
7917;SDS011;4004;42.624;23.386;2022-09-17T03:18:27;8.40;;;4.43;;
7917;SDS011;4004;42.624;23.386;2022-09-17T03:20:55;9.63;;;4.80;;
7917;SDS011;4004;42.624;23.386;2022-09-17T03:23:21;7.17;;;4.57;;
7917;SDS011;4004;42.624;23.386;2022-09-17T03:25:48;7.30;;;4.57;;
7917;SDS011;4004;42.624;23.386;2022-09-17T03:28:15;7.53;;;4.17;;
7917;SDS011;4004;42.624;23.386;2022-09-17T03:30:42;12.50;;;4.97;;
7917;SDS011;4004;42.624;23.386;2022-09-17T03:33:09;7.37;;;4.63;;
7917;SDS011;4004;42.624;23.386;2022-09-17T03:35:36;11.27;;;4.13;;
7917;SDS011;4004;42.624;23.386;2022-09-17T03:38:04;8.70;;;3.20;;
7917;SDS011;4004;42.624;23.386;2022-09-17T03:40:31;9.57;;;3.93;;
7917;SDS011;4004;42.624;23.386;2022-09-17T03:42:57;8.60;;;4.60;;
7917;SDS011;4004;42.624;23.386;2022-09-17T03:45:24;7.27;;;4.33;;
7917;SDS011;4004;42.624;23.386;2022-09-17T03:47:51;8.70;;;4.57;;
7917;SDS011;4004;42.624;23.386;2022-09-17T03:50:18;13.57;;;7.90;;
7917;SDS011;4004;42.624;23.386;2022-09-17T03:52:44;11.57;;;5.30;;
7917;SDS011;4004;42.624;23.386;2022-09-17T03:55:13;10.87;;;4.20;;
7917;SDS011;4004;42.624;23.386;2022-09-17T03:57:40;7.03;;;3.67;;
7917;SDS011;4004;42.624;23.386;2022-09-17T04:00:07;7.57;;;3.43;;
7917;SDS011;4004;42.624;23.386;2022-09-17T04:02:36;12.10;;;3.33;;
7917;SDS011;4004;42.624;23.386;2022-09-17T04:05:03;10.50;;;4.60;;
7917;SDS011;4004;42.624;23.386;2022-09-17T04:07:31;6.73;;;3.17;;
7917;SDS011;4004;42.624;23.386;2022-09-17T04:09:57;8.90;;;3.70;;
7917;SDS011;4004;42.624;23.386;2022-09-17T04:12:25;13.57;;;3.37;;
7917;SDS011;4004;42.624;23.386;2022-09-17T04:14:52;8.73;;;3.57;;
7917;SDS011;4004;42.624;23.386;2022-09-17T04:17:19;8.53;;;4.10;;
7917;SDS011;4004;42.624;23.386;2022-09-17T04:19:45;8.67;;;3.20;;
7917;SDS011;4004;42.624;23.386;2022-09-17T04:22:12;10.43;;;3.93;;
7917;SDS011;4004;42.624;23.386;2022-09-17T04:24:39;8.23;;;3.23;;
7917;SDS011;4004;42.624;23.386;2022-09-17T04:27:06;7.87;;;3.83;;
7917;SDS011;4004;42.624;23.386;2022-09-17T04:29:34;6.20;;;3.20;;
7917;SDS011;4004;42.624;23.386;2022-09-17T04:32:01;6.97;;;3.20;;
7917;SDS011;4004;42.624;23.386;2022-09-17T04:34:28;11.07;;;3.20;;
7917;SDS011;4004;42.624;23.386;2022-09-17T04:36:56;8.13;;;3.30;;
7917;SDS011;4004;42.624;23.386;2022-09-17T04:39:22;11.37;;;3.20;;
7917;SDS011;4004;42.624;23.386;2022-09-17T04:41:49;7.47;;;2.90;;
7917;SDS011;4004;42.624;23.386;2022-09-17T04:44:16;8.37;;;3.37;;
7917;SDS011;4004;42.624;23.386;2022-09-17T04:46:44;6.00;;;3.40;;
7917;SDS011;4004;42.624;23.386;2022-09-17T04:49:11;7.33;;;3.33;;
7917;SDS011;4004;42.624;23.386;2022-09-17T04:51:38;10.87;;;3.70;;
7917;SDS011;4004;42.624;23.386;2022-09-17T04:54:05;5.17;;;3.20;;
7917;SDS011;4004;42.624;23.386;2022-09-17T04:56:31;12.73;;;3.60;;
7917;SDS011;4004;42.624;23.386;2022-09-17T04:58:58;6.73;;;3.77;;
7917;SDS011;4004;42.624;23.386;2022-09-17T05:01:25;8.20;;;3.43;;
7917;SDS011;4004;42.624;23.386;2022-09-17T05:03:53;10.57;;;4.23;;
7917;SDS011;4004;42.624;23.386;2022-09-17T05:06:20;10.00;;;4.27;;
7917;SDS011;4004;42.624;23.386;2022-09-17T05:08:46;10.17;;;3.73;;
7917;SDS011;4004;42.624;23.386;2022-09-17T05:11:13;6.77;;;4.03;;
7917;SDS011;4004;42.624;23.386;2022-09-17T05:13:40;8.43;;;4.17;;
7917;SDS011;4004;42.624;23.386;2022-09-17T05:16:07;6.17;;;3.87;;
7917;SDS011;4004;42.624;23.386;2022-09-17T05:18:34;6.93;;;3.60;;
7917;SDS011;4004;42.624;23.386;2022-09-17T05:21:02;9.30;;;4.10;;
7917;SDS011;4004;42.624;23.386;2022-09-17T05:23:29;9.33;;;4.43;;
7917;SDS011;4004;42.624;23.386;2022-09-17T05:25:56;7.43;;;4.17;;
7917;SDS011;4004;42.624;23.386;2022-09-17T05:28:24;5.87;;;4.67;;
7917;SDS011;4004;42.624;23.386;2022-09-17T05:30:50;9.97;;;7.20;;
7917;SDS011;4004;42.624;23.386;2022-09-17T05:33:17;9.80;;;4.50;;
7917;SDS011;4004;42.624;23.386;2022-09-17T05:35:44;8.03;;;4.53;;
7917;SDS011;4004;42.624;23.386;2022-09-17T05:38:13;11.77;;;4.30;;
7917;SDS011;4004;42.624;23.386;2022-09-17T05:40:39;9.10;;;4.63;;
7917;SDS011;4004;42.624;23.386;2022-09-17T05:43:06;12.33;;;5.30;;
7917;SDS011;4004;42.624;23.386;2022-09-17T05:45:35;11.33;;;3.93;;
7917;SDS011;4004;42.624;23.386;2022-09-17T05:48:03;5.90;;;3.97;;
7917;SDS011;4004;42.624;23.386;2022-09-17T05:50:31;6.40;;;3.67;;
7917;SDS011;4004;42.624;23.386;2022-09-17T05:53:02;11.00;;;4.00;;
7917;SDS011;4004;42.624;23.386;2022-09-17T05:55:31;84.50;;;75.33;;
7917;SDS011;4004;42.624;23.386;2022-09-17T05:57:59;13.97;;;8.60;;
7917;SDS011;4004;42.624;23.386;2022-09-17T06:00:25;8.93;;;3.33;;
7917;SDS011;4004;42.624;23.386;2022-09-17T06:02:54;9.50;;;3.50;;
7917;SDS011;4004;42.624;23.386;2022-09-17T06:05:21;10.17;;;4.20;;
7917;SDS011;4004;42.624;23.386;2022-09-17T06:07:48;9.37;;;5.00;;
7917;SDS011;4004;42.624;23.386;2022-09-17T06:10:15;6.63;;;4.10;;
7917;SDS011;4004;42.624;23.386;2022-09-17T06:12:44;13.40;;;5.23;;
7917;SDS011;4004;42.624;23.386;2022-09-17T06:15:11;9.00;;;3.90;;
7917;SDS011;4004;42.624;23.386;2022-09-17T06:17:39;6.50;;;3.90;;
7917;SDS011;4004;42.624;23.386;2022-09-17T06:20:07;9.20;;;4.80;;
7917;SDS011;4004;42.624;23.386;2022-09-17T06:22:34;12.03;;;4.30;;
7917;SDS011;4004;42.624;23.386;2022-09-17T06:25:01;10.47;;;4.77;;
7917;SDS011;4004;42.624;23.386;2022-09-17T06:27:29;10.73;;;6.20;;
7917;SDS011;4004;42.624;23.386;2022-09-17T06:29:58;8.20;;;4.97;;
7917;SDS011;4004;42.624;23.386;2022-09-17T06:32:25;11.03;;;5.87;;
7917;SDS011;4004;42.624;23.386;2022-09-17T06:34:52;9.70;;;4.70;;
7917;SDS011;4004;42.624;23.386;2022-09-17T06:37:20;11.80;;;6.10;;
7917;SDS011;4004;42.624;23.386;2022-09-17T06:39:52;9.40;;;5.57;;
7917;SDS011;4004;42.624;23.386;2022-09-17T06:42:19;13.03;;;6.20;;
7917;SDS011;4004;42.624;23.386;2022-09-17T06:44:45;10.33;;;6.60;;
7917;SDS011;4004;42.624;23.386;2022-09-17T06:47:14;16.87;;;6.43;;
7917;SDS011;4004;42.624;23.386;2022-09-17T06:49:40;14.23;;;6.53;;
7917;SDS011;4004;42.624;23.386;2022-09-17T06:52:07;7.20;;;5.70;;
7917;SDS011;4004;42.624;23.386;2022-09-17T06:54:34;13.80;;;6.40;;
7917;SDS011;4004;42.624;23.386;2022-09-17T06:57:01;15.23;;;6.07;;
7917;SDS011;4004;42.624;23.386;2022-09-17T06:59:27;46.27;;;35.77;;
7917;SDS011;4004;42.624;23.386;2022-09-17T07:01:54;23.70;;;9.23;;
7917;SDS011;4004;42.624;23.386;2022-09-17T07:04:22;26.27;;;6.93;;
7917;SDS011;4004;42.624;23.386;2022-09-17T07:06:49;11.90;;;5.10;;
7917;SDS011;4004;42.624;23.386;2022-09-17T07:09:16;12.13;;;5.27;;
7917;SDS011;4004;42.624;23.386;2022-09-17T07:11:42;10.37;;;5.83;;
7917;SDS011;4004;42.624;23.386;2022-09-17T07:14:09;10.17;;;5.73;;
7917;SDS011;4004;42.624;23.386;2022-09-17T07:16:36;17.23;;;6.77;;
7917;SDS011;4004;42.624;23.386;2022-09-17T07:19:02;14.33;;;5.57;;
7917;SDS011;4004;42.624;23.386;2022-09-17T07:21:31;19.10;;;5.70;;
7917;SDS011;4004;42.624;23.386;2022-09-17T07:23:58;12.03;;;5.00;;
7917;SDS011;4004;42.624;23.386;2022-09-17T07:26:24;11.67;;;4.93;;
7917;SDS011;4004;42.624;23.386;2022-09-17T07:28:51;15.70;;;8.13;;
7917;SDS011;4004;42.624;23.386;2022-09-17T07:31:18;20.83;;;12.97;;
7917;SDS011;4004;42.624;23.386;2022-09-17T07:33:45;11.67;;;4.90;;
7917;SDS011;4004;42.624;23.386;2022-09-17T07:36:12;11.23;;;4.70;;
7917;SDS011;4004;42.624;23.386;2022-09-17T07:38:43;10.67;;;4.03;;
7917;SDS011;4004;42.624;23.386;2022-09-17T07:41:11;9.77;;;4.87;;
7917;SDS011;4004;42.624;23.386;2022-09-17T07:43:38;10.13;;;4.63;;
7917;SDS011;4004;42.624;23.386;2022-09-17T07:46:06;9.50;;;3.97;;
7917;SDS011;4004;42.624;23.386;2022-09-17T07:48:35;9.37;;;3.80;;
7917;SDS011;4004;42.624;23.386;2022-09-17T07:51:02;9.90;;;3.70;;
7917;SDS011;4004;42.624;23.386;2022-09-17T07:53:28;9.60;;;4.00;;
7917;SDS011;4004;42.624;23.386;2022-09-17T07:55:57;7.50;;;3.20;;
7917;SDS011;4004;42.624;23.386;2022-09-17T07:58:27;6.57;;;3.33;;
7917;SDS011;4004;42.624;23.386;2022-09-17T08:00:58;7.67;;;2.90;;
7917;SDS011;4004;42.624;23.386;2022-09-17T08:03:26;5.63;;;2.50;;
7917;SDS011;4004;42.624;23.386;2022-09-17T08:05:53;8.67;;;3.40;;
7917;SDS011;4004;42.624;23.386;2022-09-17T08:08:19;10.03;;;3.23;;
7917;SDS011;4004;42.624;23.386;2022-09-17T08:10:46;5.97;;;2.70;;
7917;SDS011;4004;42.624;23.386;2022-09-17T08:13:14;5.30;;;2.63;;
7917;SDS011;4004;42.624;23.386;2022-09-17T08:15:41;5.83;;;2.50;;
7917;SDS011;4004;42.624;23.386;2022-09-17T08:18:08;7.87;;;2.43;;
7917;SDS011;4004;42.624;23.386;2022-09-17T08:20:35;6.23;;;2.73;;
7917;SDS011;4004;42.624;23.386;2022-09-17T08:23:01;10.90;;;2.63;;
7917;SDS011;4004;42.624;23.386;2022-09-17T08:25:28;6.97;;;2.67;;
7917;SDS011;4004;42.624;23.386;2022-09-17T08:27:55;6.00;;;2.73;;
7917;SDS011;4004;42.624;23.386;2022-09-17T08:30:23;9.77;;;2.40;;
7917;SDS011;4004;42.624;23.386;2022-09-17T08:32:50;5.53;;;1.83;;
7917;SDS011;4004;42.624;23.386;2022-09-17T08:35:17;4.67;;;1.90;;
7917;SDS011;4004;42.624;23.386;2022-09-17T08:37:43;6.50;;;1.90;;
7917;SDS011;4004;42.624;23.386;2022-09-17T08:40:12;5.30;;;1.80;;
7917;SDS011;4004;42.624;23.386;2022-09-17T08:42:48;25.53;;;19.53;;
7917;SDS011;4004;42.624;23.386;2022-09-17T08:45:20;5.70;;;2.43;;
7917;SDS011;4004;42.624;23.386;2022-09-17T08:47:48;11.80;;;2.20;;
7917;SDS011;4004;42.624;23.386;2022-09-17T08:50:16;6.27;;;2.40;;
7917;SDS011;4004;42.624;23.386;2022-09-17T08:52:58;5.87;;;2.03;;
7917;SDS011;4004;42.624;23.386;2022-09-17T08:55:36;6.43;;;2.23;;
7917;SDS011;4004;42.624;23.386;2022-09-17T09:01:11;5.27;;;2.20;;
7917;SDS011;4004;42.624;23.386;2022-09-17T09:03:57;9.00;;;2.20;;
7917;SDS011;4004;42.624;23.386;2022-09-17T09:06:46;4.33;;;1.93;;
7917;SDS011;4004;42.624;23.386;2022-09-17T09:09:17;11.53;;;2.53;;
7917;SDS011;4004;42.624;23.386;2022-09-17T09:11:46;5.40;;;2.07;;
7917;SDS011;4004;42.624;23.386;2022-09-17T09:14:16;6.63;;;2.20;;
7917;SDS011;4004;42.624;23.386;2022-09-17T09:16:48;5.63;;;1.90;;
7917;SDS011;4004;42.624;23.386;2022-09-17T09:19:20;8.40;;;2.07;;
7917;SDS011;4004;42.624;23.386;2022-09-17T09:21:59;7.37;;;2.10;;
7917;SDS011;4004;42.624;23.386;2022-09-17T09:24:31;5.43;;;2.13;;
7917;SDS011;4004;42.624;23.386;2022-09-17T09:27:08;5.50;;;2.10;;
7917;SDS011;4004;42.624;23.386;2022-09-17T09:29:42;5.17;;;2.40;;
7917;SDS011;4004;42.624;23.386;2022-09-17T09:32:19;4.97;;;2.20;;
7917;SDS011;4004;42.624;23.386;2022-09-17T09:34:56;5.40;;;2.40;;
7917;SDS011;4004;42.624;23.386;2022-09-17T09:37:28;10.33;;;3.30;;
7917;SDS011;4004;42.624;23.386;2022-09-17T09:40:00;12.30;;;6.00;;
7917;SDS011;4004;42.624;23.386;2022-09-17T09:42:33;9.83;;;3.93;;
7917;SDS011;4004;42.624;23.386;2022-09-17T09:45:10;10.20;;;3.60;;
7917;SDS011;4004;42.624;23.386;2022-09-17T09:47:44;8.57;;;3.00;;
7917;SDS011;4004;42.624;23.386;2022-09-17T09:50:32;11.63;;;3.23;;
7917;SDS011;4004;42.624;23.386;2022-09-17T09:53:10;5.90;;;2.60;;
7917;SDS011;4004;42.624;23.386;2022-09-17T09:55:50;7.90;;;2.83;;
7917;SDS011;4004;42.624;23.386;2022-09-17T09:58:33;5.33;;;2.23;;
7917;SDS011;4004;42.624;23.386;2022-09-17T10:01:01;6.93;;;2.17;;
7917;SDS011;4004;42.624;23.386;2022-09-17T10:03:29;4.90;;;2.97;;
7917;SDS011;4004;42.624;23.386;2022-09-17T10:05:59;7.87;;;2.97;;
7917;SDS011;4004;42.624;23.386;2022-09-17T10:08:27;7.60;;;2.63;;
7917;SDS011;4004;42.624;23.386;2022-09-17T10:10:56;6.93;;;2.87;;
7917;SDS011;4004;42.624;23.386;2022-09-17T10:13:26;5.20;;;2.17;;
7917;SDS011;4004;42.624;23.386;2022-09-17T10:15:54;5.13;;;2.33;;
7917;SDS011;4004;42.624;23.386;2022-09-17T10:18:22;20.37;;;15.40;;
7917;SDS011;4004;42.624;23.386;2022-09-17T10:20:54;10.43;;;7.13;;
7917;SDS011;4004;42.624;23.386;2022-09-17T10:23:24;32.43;;;28.23;;
7917;SDS011;4004;42.624;23.386;2022-09-17T10:25:52;15.73;;;12.77;;
7917;SDS011;4004;42.624;23.386;2022-09-17T10:28:28;16.83;;;15.00;;
7917;SDS011;4004;42.624;23.386;2022-09-17T10:30:59;13.33;;;10.63;;
7917;SDS011;4004;42.624;23.386;2022-09-17T10:33:30;12.27;;;10.57;;
7917;SDS011;4004;42.624;23.386;2022-09-17T10:35:59;13.20;;;6.10;;
7917;SDS011;4004;42.624;23.386;2022-09-17T10:38:33;9.07;;;5.33;;
7917;SDS011;4004;42.624;23.386;2022-09-17T10:43:49;10.57;;;5.20;;
7917;SDS011;4004;42.624;23.386;2022-09-17T10:46:18;8.83;;;4.77;;
7917;SDS011;4004;42.624;23.386;2022-09-17T10:48:51;8.07;;;4.30;;
7917;SDS011;4004;42.624;23.386;2022-09-17T10:51:24;11.00;;;4.73;;
7917;SDS011;4004;42.624;23.386;2022-09-17T10:54:05;8.77;;;4.23;;
7917;SDS011;4004;42.624;23.386;2022-09-17T10:56:43;8.77;;;4.60;;
7917;SDS011;4004;42.624;23.386;2022-09-17T10:59:28;8.57;;;4.00;;
7917;SDS011;4004;42.624;23.386;2022-09-17T11:05:17;9.07;;;3.80;;
7917;SDS011;4004;42.624;23.386;2022-09-17T11:07:58;7.00;;;2.87;;
7917;SDS011;4004;42.624;23.386;2022-09-17T11:10:38;5.43;;;2.80;;
7917;SDS011;4004;42.624;23.386;2022-09-17T11:13:14;9.27;;;5.13;;
7917;SDS011;4004;42.624;23.386;2022-09-17T11:16:01;6.63;;;3.50;;
7917;SDS011;4004;42.624;23.386;2022-09-17T11:18:41;6.13;;;3.00;;
7917;SDS011;4004;42.624;23.386;2022-09-17T11:21:20;7.37;;;2.53;;
7917;SDS011;4004;42.624;23.386;2022-09-17T11:24:11;3.40;;;2.27;;
7917;SDS011;4004;42.624;23.386;2022-09-17T11:26:55;3.60;;;1.70;;
7917;SDS011;4004;42.624;23.386;2022-09-17T11:29:34;5.77;;;2.00;;
7917;SDS011;4004;42.624;23.386;2022-09-17T11:32:19;3.40;;;2.10;;
7917;SDS011;4004;42.624;23.386;2022-09-17T11:35:01;3.73;;;2.07;;
7917;SDS011;4004;42.624;23.386;2022-09-17T11:37:34;45.33;;;39.67;;
7917;SDS011;4004;42.624;23.386;2022-09-17T11:40:05;72.60;;;39.80;;
7917;SDS011;4004;42.624;23.386;2022-09-17T11:42:41;38.13;;;19.73;;
7917;SDS011;4004;42.624;23.386;2022-09-17T11:45:11;74.70;;;39.00;;
7917;SDS011;4004;42.624;23.386;2022-09-17T11:47:43;170.40;;;78.47;;
7917;SDS011;4004;42.624;23.386;2022-09-17T11:50:16;14.57;;;7.87;;
7917;SDS011;4004;42.624;23.386;2022-09-17T11:52:53;60.73;;;30.37;;
7917;SDS011;4004;42.624;23.386;2022-09-17T11:55:30;93.80;;;66.80;;
7917;SDS011;4004;42.624;23.386;2022-09-17T11:58:06;80.73;;;41.33;;
7917;SDS011;4004;42.624;23.386;2022-09-17T12:00:42;93.33;;;44.67;;
7917;SDS011;4004;42.624;23.386;2022-09-17T12:03:16;183.70;;;85.57;;
7917;SDS011;4004;42.624;23.386;2022-09-17T12:05:49;394.10;;;200.07;;
7917;SDS011;4004;42.624;23.386;2022-09-17T12:08:20;222.40;;;104.10;;
7917;SDS011;4004;42.624;23.386;2022-09-17T12:10:51;157.47;;;68.00;;
7917;SDS011;4004;42.624;23.386;2022-09-17T12:13:31;232.30;;;100.97;;
7917;SDS011;4004;42.624;23.386;2022-09-17T12:16:06;98.23;;;43.70;;
7917;SDS011;4004;42.624;23.386;2022-09-17T12:18:43;24.53;;;14.03;;
7917;SDS011;4004;42.624;23.386;2022-09-17T12:21:15;12.77;;;6.57;;
7917;SDS011;4004;42.624;23.386;2022-09-17T12:23:47;44.87;;;20.57;;
7917;SDS011;4004;42.624;23.386;2022-09-17T12:26:23;7.70;;;2.67;;
7917;SDS011;4004;42.624;23.386;2022-09-17T12:28:59;3.17;;;2.10;;
7917;SDS011;4004;42.624;23.386;2022-09-17T12:31:33;6.30;;;3.60;;
7917;SDS011;4004;42.624;23.386;2022-09-17T12:34:12;6.73;;;4.77;;
7917;SDS011;4004;42.624;23.386;2022-09-17T12:36:52;7.10;;;2.50;;
7917;SDS011;4004;42.624;23.386;2022-09-17T12:39:31;8.80;;;2.60;;
7917;SDS011;4004;42.624;23.386;2022-09-17T12:42:14;70.83;;;49.83;;
7917;SDS011;4004;42.624;23.386;2022-09-17T12:44:57;18.70;;;12.07;;
7917;SDS011;4004;42.624;23.386;2022-09-17T12:47:42;19.33;;;13.73;;
7917;SDS011;4004;42.624;23.386;2022-09-17T12:50:30;11.10;;;4.83;;
7917;SDS011;4004;42.624;23.386;2022-09-17T12:53:13;17.90;;;10.27;;
7917;SDS011;4004;42.624;23.386;2022-09-17T12:55:58;6.93;;;2.30;;
7917;SDS011;4004;42.624;23.386;2022-09-17T12:58:32;5.93;;;3.00;;
7917;SDS011;4004;42.624;23.386;2022-09-17T13:01:16;6.97;;;2.47;;
7917;SDS011;4004;42.624;23.386;2022-09-17T13:03:48;8.30;;;3.30;;
7917;SDS011;4004;42.624;23.386;2022-09-17T13:06:28;7.70;;;3.40;;
7917;SDS011;4004;42.624;23.386;2022-09-17T13:12:22;8.47;;;3.00;;
7917;SDS011;4004;42.624;23.386;2022-09-17T13:17:59;7.73;;;3.20;;
7917;SDS011;4004;42.624;23.386;2022-09-17T13:20:34;4.03;;;2.63;;
7917;SDS011;4004;42.624;23.386;2022-09-17T13:23:08;6.33;;;2.53;;
7917;SDS011;4004;42.624;23.386;2022-09-17T13:25:48;2.73;;;1.80;;
7917;SDS011;4004;42.624;23.386;2022-09-17T13:28:16;1.73;;;1.10;;
7917;SDS011;4004;42.624;23.386;2022-09-17T13:30:56;2.50;;;1.50;;
7917;SDS011;4004;42.624;23.386;2022-09-17T13:36:37;1.63;;;1.40;;
7917;SDS011;4004;42.624;23.386;2022-09-17T13:39:11;3.03;;;1.20;;
7917;SDS011;4004;42.624;23.386;2022-09-17T13:42:00;4.20;;;1.23;;
7917;SDS011;4004;42.624;23.386;2022-09-17T13:44:33;4.77;;;1.87;;
7917;SDS011;4004;42.624;23.386;2022-09-17T13:47:10;4.43;;;1.70;;
7917;SDS011;4004;42.624;23.386;2022-09-17T13:49:46;3.97;;;1.83;;
7917;SDS011;4004;42.624;23.386;2022-09-17T13:52:32;5.67;;;2.37;;
7917;SDS011;4004;42.624;23.386;2022-09-17T13:55:01;3.57;;;2.40;;
7917;SDS011;4004;42.624;23.386;2022-09-17T13:57:29;6.30;;;2.13;;
7917;SDS011;4004;42.624;23.386;2022-09-17T13:59:59;7.70;;;2.53;;
7917;SDS011;4004;42.624;23.386;2022-09-17T14:02:33;7.60;;;2.63;;
7917;SDS011;4004;42.624;23.386;2022-09-17T14:11:17;2.90;;;1.60;;
7917;SDS011;4004;42.624;23.386;2022-09-17T14:14:32;2.10;;;1.57;;
7917;SDS011;4004;42.624;23.386;2022-09-17T14:20:17;6.00;;;1.47;;
7917;SDS011;4004;42.624;23.386;2022-09-17T14:22:54;4.97;;;1.60;;
7917;SDS011;4004;42.624;23.386;2022-09-17T14:25:25;4.37;;;1.40;;
7917;SDS011;4004;42.624;23.386;2022-09-17T14:27:58;2.80;;;1.57;;
7917;SDS011;4004;42.624;23.386;2022-09-17T14:30:29;6.47;;;1.40;;
7917;SDS011;4004;42.624;23.386;2022-09-17T14:33:00;3.57;;;1.50;;
7917;SDS011;4004;42.624;23.386;2022-09-17T14:35:33;2.67;;;1.80;;
7917;SDS011;4004;42.624;23.386;2022-09-17T14:38:02;1.93;;;1.50;;
7917;SDS011;4004;42.624;23.386;2022-09-17T14:40:39;2.27;;;1.50;;
7917;SDS011;4004;42.624;23.386;2022-09-17T14:43:09;7.10;;;2.00;;
7917;SDS011;4004;42.624;23.386;2022-09-17T14:45:46;5.10;;;1.53;;
7917;SDS011;4004;42.624;23.386;2022-09-17T14:48:16;5.03;;;1.93;;
7917;SDS011;4004;42.624;23.386;2022-09-17T14:50:44;3.53;;;1.50;;
7917;SDS011;4004;42.624;23.386;2022-09-17T14:53:15;3.60;;;1.83;;
7917;SDS011;4004;42.624;23.386;2022-09-17T14:55:43;5.53;;;2.10;;
7917;SDS011;4004;42.624;23.386;2022-09-17T14:58:24;7.47;;;1.90;;
7917;SDS011;4004;42.624;23.386;2022-09-17T15:00:57;8.87;;;2.13;;
7917;SDS011;4004;42.624;23.386;2022-09-17T15:03:24;3.93;;;1.70;;
7917;SDS011;4004;42.624;23.386;2022-09-17T15:05:51;2.87;;;1.63;;
7917;SDS011;4004;42.624;23.386;2022-09-17T15:08:20;5.33;;;1.80;;
7917;SDS011;4004;42.624;23.386;2022-09-17T15:10:49;3.93;;;1.70;;
7917;SDS011;4004;42.624;23.386;2022-09-17T15:13:19;4.00;;;1.70;;
7917;SDS011;4004;42.624;23.386;2022-09-17T15:15:53;3.93;;;1.60;;
7917;SDS011;4004;42.624;23.386;2022-09-17T15:18:26;7.17;;;1.90;;
7917;SDS011;4004;42.624;23.386;2022-09-17T15:21:01;2.80;;;1.40;;
7917;SDS011;4004;42.624;23.386;2022-09-17T15:23:30;7.43;;;1.97;;
7917;SDS011;4004;42.624;23.386;2022-09-17T15:25:59;4.97;;;2.03;;
7917;SDS011;4004;42.624;23.386;2022-09-17T15:28:28;6.00;;;2.30;;
7917;SDS011;4004;42.624;23.386;2022-09-17T15:30:59;4.83;;;2.30;;
7917;SDS011;4004;42.624;23.386;2022-09-17T15:33:26;9.37;;;2.27;;
7917;SDS011;4004;42.624;23.386;2022-09-17T15:35:58;6.50;;;2.37;;
7917;SDS011;4004;42.624;23.386;2022-09-17T15:38:27;5.47;;;1.90;;
7917;SDS011;4004;42.624;23.386;2022-09-17T15:41:10;3.43;;;1.77;;
7917;SDS011;4004;42.624;23.386;2022-09-17T15:43:46;6.57;;;2.03;;
7917;SDS011;4004;42.624;23.386;2022-09-17T15:46:19;8.50;;;2.53;;
7917;SDS011;4004;42.624;23.386;2022-09-17T15:48:48;8.43;;;2.13;;
7917;SDS011;4004;42.624;23.386;2022-09-17T15:51:20;5.93;;;2.73;;
7917;SDS011;4004;42.624;23.386;2022-09-17T15:53:50;18.57;;;16.63;;